Time;durP1;ratioP1;P1;durP2;ratioP2;P2;SDS_P1;SDS_P2;PMS_P1;PMS_P2;Temp;Humidity;BMP_temperature;BMP_pressure;BME280_temperature;BME280_humidity;BME280_pressure;Samples;Min_cycle;Max_cycle;Signal;HPM_P1;HPM_P2
2022/06/17 00:01:00;;;;;;;0.70;0.22;;;20.00;83.50;;;;;;5088631;28;20514;-80
2022/06/17 00:03:27;;;;;;;0.82;0.30;;;20.10;83.10;;;;;;5071181;28;20032;-80
2022/06/17 00:05:56;;;;;;;1.90;0.40;;;20.00;86.60;;;;;;5070778;28;20055;-81
2022/06/17 00:08:29;;;;;;;1.38;0.30;;;19.90;90.30;;;;;;5088436;28;20081;-80
2022/06/17 00:10:55;;;;;;;0.70;0.30;;;19.70;91.30;;;;;;5067045;28;20231;-81
2022/06/17 00:13:22;;;;;;;1.25;0.30;;;19.50;90.90;;;;;;5089134;28;20098;-80
2022/06/17 00:15:48;;;;;;;0.82;0.30;;;19.40;88.90;;;;;;5070360;28;20042;-79
2022/06/17 00:18:15;;;;;;;1.52;0.30;;;19.50;88.70;;;;;;5070742;28;20028;-79
2022/06/17 00:20:41;;;;;;;2.00;0.52;;;19.30;90.70;;;;;;5070021;28;20070;-81
2022/06/17 00:23:16;;;;;;;1.92;0.30;;;19.30;91.60;;;;;;5069435;28;20046;-81
2022/06/17 00:25:45;;;;;;;1.63;0.30;;;19.10;92.30;;;;;;5070594;28;20046;-81
2022/06/17 00:28:23;;;;;;;1.40;0.47;;;19.10;91.60;;;;;;5070178;28;20026;-81
2022/06/17 00:30:49;;;;;;;1.75;0.28;;;19.10;90.50;;;;;;5069720;28;20052;-80
2022/06/17 00:33:17;;;;;;;1.58;0.30;;;19.10;87.00;;;;;;5088617;28;20573;-81
2022/06/17 00:35:52;;;;;;;2.80;0.30;;;19.30;85.90;;;;;;5069787;28;20085;-80
2022/06/17 00:38:29;;;;;;;0.98;0.30;;;19.50;84.20;;;;;;5070304;28;20020;-80
2022/06/17 00:40:56;;;;;;;1.75;0.32;;;19.60;83.50;;;;;;5070226;28;20085;-80
2022/06/17 00:43:30;;;;;;;1.27;0.30;;;19.70;82.40;;;;;;5070207;28;20036;-79
2022/06/17 00:46:05;;;;;;;2.78;0.30;;;19.80;82.30;;;;;;5070178;28;20028;-80
2022/06/17 00:48:37;;;;;;;2.03;0.40;;;19.80;81.50;;;;;;5069786;28;20028;-79
2022/06/17 00:51:20;;;;;;;1.52;0.35;;;19.80;81.20;;;;;;5069794;28;20763;-79
2022/06/17 00:54:12;;;;;;;0.60;0.28;;;19.80;80.80;;;;;;5088071;28;20472;-81
2022/06/17 00:56:38;;;;;;;3.00;0.30;;;19.90;81.60;;;;;;5069784;28;20111;-81
2022/06/17 00:59:10;;;;;;;2.40;0.40;;;19.80;81.50;;;;;;5069618;28;20535;-80
2022/06/17 01:01:53;;;;;;;6.25;0.30;;;19.80;81.90;;;;;;5069681;28;20031;-81
2022/06/17 01:04:23;;;;;;;1.45;0.45;;;19.80;82.20;;;;;;5069552;28;20028;-81
2022/06/17 01:06:55;;;;;;;3.22;0.30;;;19.80;82.60;;;;;;5069219;28;20051;-80
2022/06/17 01:12:13;;;;;;;14.35;1.33;;;19.50;85.60;;;;;;5087668;28;20119;-82
2022/06/17 01:14:40;;;;;;;2.10;0.30;;;19.30;87.20;;;;;;5087113;28;20103;-82
2022/06/17 01:17:07;;;;;;;1.17;0.30;;;19.10;88.90;;;;;;5069510;28;20035;-82
2022/06/17 01:19:36;;;;;;;1.98;0.40;;;19.00;90.10;;;;;;5069259;28;20030;-82
2022/06/17 01:22:26;;;;;;;1.10;0.30;;;18.90;90.70;;;;;;5087306;28;20031;-83
2022/06/17 01:25:11;;;;;;;2.92;0.60;;;18.80;91.10;;;;;;5087541;28;20030;-83
2022/06/17 01:27:45;;;;;;;2.75;0.40;;;18.70;91.40;;;;;;5087263;28;20035;-83
2022/06/17 01:30:16;;;;;;;1.35;0.30;;;18.70;91.80;;;;;;5069100;28;20101;-83
2022/06/17 01:33:00;;;;;;;1.60;0.40;;;18.60;92.10;;;;;;5069483;28;20036;-83
2022/06/17 01:35:30;;;;;;;2.67;0.82;;;18.60;92.40;;;;;;5069033;28;20023;-82
2022/06/17 01:37:57;;;;;;;2.47;0.40;;;18.60;92.60;;;;;;5086858;28;20024;-81
2022/06/17 01:40:24;;;;;;;2.85;0.30;;;18.50;92.90;;;;;;5068965;28;20038;-82
2022/06/17 01:42:50;;;;;;;1.38;0.55;;;18.50;93.20;;;;;;5086978;28;20205;-83
2022/06/17 01:45:16;;;;;;;3.00;0.73;;;18.50;93.40;;;;;;5068554;28;20115;-83
2022/06/17 01:47:44;;;;;;;1.73;0.82;;;18.40;93.60;;;;;;5069175;28;20028;-82
2022/06/17 01:50:19;;;;;;;1.98;0.40;;;18.40;93.80;;;;;;5069096;28;20032;-83
2022/06/17 01:52:52;;;;;;;2.88;0.50;;;18.40;94.00;;;;;;5068067;28;20028;-82
2022/06/17 01:55:29;;;;;;;4.68;0.85;;;18.40;94.10;;;;;;5068077;28;20111;-82
2022/06/17 01:58:23;;;;;;;2.38;0.50;;;18.40;94.00;;;;;;5087051;28;20107;-82
2022/06/17 02:00:49;;;;;;;2.78;0.40;;;18.40;94.10;;;;;;5087174;28;20032;-82
2022/06/17 02:03:29;;;;;;;1.58;0.30;;;18.40;94.10;;;;;;5069015;28;20024;-82
2022/06/17 02:06:09;;;;;;;1.52;0.45;;;18.40;94.10;;;;;;5068999;28;20028;-81
2022/06/17 02:08:35;;;;;;;1.38;0.43;;;18.40;94.00;;;;;;5068696;28;20081;-82
2022/06/17 02:11:04;;;;;;;2.22;0.50;;;18.40;93.90;;;;;;5068661;28;20028;-82
2022/06/17 02:13:32;;;;;;;2.65;0.50;;;18.40;93.80;;;;;;5087046;28;20084;-83
2022/06/17 02:16:03;;;;;;;2.85;1.00;;;18.40;93.90;;;;;;5068677;28;20036;-83
2022/06/17 02:18:30;;;;;;;1.80;0.40;;;18.50;93.90;;;;;;5068388;28;20032;-83
2022/06/17 02:21:01;;;;;;;3.67;0.85;;;18.50;94.00;;;;;;5067823;28;20031;-83
2022/06/17 02:23:27;;;;;;;1.05;0.50;;;18.50;94.20;;;;;;5068156;28;20032;-83
2022/06/17 02:25:55;;;;;;;2.35;0.40;;;18.40;94.20;;;;;;5068528;28;20024;-83
2022/06/17 02:28:23;;;;;;;1.40;0.40;;;18.40;94.30;;;;;;5068505;28;20028;-82
2022/06/17 02:30:50;;;;;;;0.75;0.50;;;18.40;94.50;;;;;;5067946;28;20062;-81
2022/06/17 02:33:17;;;;;;;1.33;0.77;;;18.40;94.60;;;;;;5068843;28;20036;-82
2022/06/17 02:35:48;;;;;;;0.57;0.30;;;18.30;94.70;;;;;;5068414;28;20542;-81
2022/06/17 02:38:18;;;;;;;1.02;0.32;;;18.30;94.90;;;;;;5068349;28;20131;-80
2022/06/17 02:40:47;;;;;;;1.70;0.40;;;18.30;95.20;;;;;;5086429;28;20035;-81
2022/06/17 02:43:17;;;;;;;1.52;0.45;;;18.20;95.30;;;;;;5068330;28;20496;-81
2022/06/17 02:45:46;;;;;;;1.60;0.50;;;18.20;95.50;;;;;;5086780;28;20063;-81
2022/06/17 02:48:33;;;;;;;2.55;0.70;;;18.10;96.10;;;;;;5068708;28;20028;-81
2022/06/17 02:51:01;;;;;;;1.70;0.50;;;18.00;96.10;;;;;;5068068;28;20032;-80
2022/06/17 02:53:31;;;;;;;5.95;0.40;;;17.90;96.60;;;;;;5068312;28;20020;-81
2022/06/17 02:55:58;;;;;;;1.17;0.40;;;17.80;96.90;;;;;;5068425;28;20476;-81
2022/06/17 02:58:52;;;;;;;3.72;0.57;;;17.60;97.10;;;;;;5067798;28;20047;-81
2022/06/17 03:01:24;;;;;;;2.33;0.50;;;17.40;97.50;;;;;;5068398;28;20070;-81
2022/06/17 03:03:52;;;;;;;1.67;0.57;;;17.20;98.20;;;;;;5068038;28;20020;-79
2022/06/17 03:06:31;;;;;;;3.17;0.50;;;17.20;99.00;;;;;;5069955;28;20029;-81
2022/06/17 03:09:00;;;;;;;1.65;0.77;;;17.20;99.80;;;;;;5071771;28;20027;-81
2022/06/17 03:11:26;;;;;;;3.20;0.50;;;17.00;99.90;;;;;;5071994;28;20047;-81
2022/06/17 03:13:55;;;;;;;1.35;0.50;;;17.00;99.90;;;;;;5071755;28;20032;-80
2022/06/17 03:16:23;;;;;;;3.35;0.60;;;16.90;99.90;;;;;;5071642;28;20028;-81
2022/06/17 03:18:51;;;;;;;5.88;0.70;;;16.90;99.90;;;;;;5090188;28;20085;-84
2022/06/17 03:21:23;;;;;;;3.08;0.50;;;16.90;99.90;;;;;;5073813;28;20077;-82
2022/06/17 03:24:13;;;;;;;2.95;0.50;;;16.90;99.90;;;;;;5071294;28;20032;-82
2022/06/17 03:26:57;;;;;;;5.78;0.52;;;16.90;99.90;;;;;;5071433;28;20077;-80
2022/06/17 03:29:25;;;;;;;5.20;0.70;;;17.00;99.90;;;;;;5071545;28;20048;-82
2022/06/17 03:31:58;;;;;;;4.63;0.50;;;17.00;99.90;;;;;;5089231;28;20035;-83
2022/06/17 03:34:36;;;;;;;1.48;0.45;;;17.10;99.90;;;;;;5089512;28;20020;-82
2022/06/17 03:37:22;;;;;;;5.13;0.70;;;17.10;99.90;;;;;;5071001;28;20031;-83
2022/06/17 03:39:52;;;;;;;3.90;0.60;;;17.10;99.90;;;;;;5089237;28;20023;-83
2022/06/17 03:42:31;;;;;;;2.17;0.50;;;17.20;99.90;;;;;;5089580;28;20032;-82
2022/06/17 03:45:18;;;;;;;6.65;0.40;;;17.20;99.90;;;;;;5088894;28;20518;-82
2022/06/17 03:47:48;;;;;;;;;;;17.20;99.90;;;;;;5071432;28;20115;-83
2022/06/17 03:50:23;;;;;;;6.63;0.75;;;17.30;99.90;;;;;;5070949;28;19919;-82
2022/06/17 03:52:58;;;;;;;1.58;0.50;;;17.40;99.90;;;;;;5088959;28;20056;-83
2022/06/17 03:55:24;;;;;;;2.08;0.60;;;17.50;99.90;;;;;;5089181;28;20081;-83
2022/06/17 03:57:54;;;;;;;2.95;0.52;;;17.60;99.90;;;;;;5089080;28;20024;-82
2022/06/17 04:00:41;;;;;;;4.38;0.50;;;17.90;99.90;;;;;;5070433;28;20518;-82
2022/06/17 04:03:12;;;;;;;1.60;0.50;;;18.10;99.90;;;;;;5070711;28;20035;-82
2022/06/17 04:05:40;;;;;;;1.95;0.40;;;18.50;99.90;;;;;;5069732;28;20028;-82
2022/06/17 04:08:05;;;;;;;4.30;0.60;;;18.80;99.90;;;;;;5070912;28;20035;-82
2022/06/17 04:10:31;;;;;;;1.58;0.40;;;19.10;99.90;;;;;;5070639;28;20024;-82
2022/06/17 04:12:58;;;;;;;2.00;0.68;;;19.50;99.10;;;;;;5088897;28;20039;-82
2022/06/17 04:15:40;;;;;;;1.75;0.50;;;19.90;98.10;;;;;;5070693;28;20598;-82
2022/06/17 04:18:08;;;;;;;3.38;0.60;;;20.10;97.20;;;;;;5069895;28;20377;-82
2022/06/17 04:20:50;;;;;;;4.55;0.60;;;20.30;96.30;;;;;;5070867;28;20024;-81
2022/06/17 04:23:25;;;;;;;3.25;0.77;;;20.40;96.30;;;;;;5070875;28;20074;-82
2022/06/17 04:26:02;;;;;;;3.05;0.60;;;20.40;96.50;;;;;;5088158;28;20030;-83
2022/06/17 04:28:33;;;;;;;3.05;0.73;;;20.50;95.70;;;;;;5070184;28;20024;-80
2022/06/17 04:31:03;;;;;;;1.42;0.47;;;20.70;94.90;;;;;;5069742;28;20048;-81
2022/06/17 04:33:50;;;;;;;2.80;0.60;;;20.80;94.60;;;;;;5071155;28;20451;-81
2022/06/17 04:36:30;;;;;;;5.90;0.60;;;21.00;94.10;;;;;;5070526;28;20028;-81
2022/06/17 04:38:59;;;;;;;6.95;0.45;;;21.10;93.20;;;;;;5070345;28;20031;-81
2022/06/17 04:41:30;;;;;;;8.40;0.63;;;21.40;92.60;;;;;;5070438;28;20031;-80
2022/06/17 04:43:58;;;;;;;7.65;0.68;;;21.60;91.80;;;;;;5069735;28;20027;-81
2022/06/17 04:46:39;;;;;;;2.78;0.60;;;21.70;92.30;;;;;;5088423;28;20028;-80
2022/06/17 04:49:06;;;;;;;6.45;0.85;;;21.70;92.20;;;;;;5069423;28;20024;-81
2022/06/17 04:51:34;;;;;;;3.67;0.50;;;21.80;91.60;;;;;;5069388;28;20137;-80
2022/06/17 04:54:04;;;;;;;1.35;0.70;;;21.80;91.20;;;;;;5088103;28;20031;-82
2022/06/17 04:56:34;;;;;;;1.65;0.60;;;21.90;90.90;;;;;;5069722;28;20032;-81
2022/06/17 04:58:59;;;;;;;3.35;0.60;;;22.10;90.80;;;;;;5088322;28;20046;-81
2022/06/17 05:01:29;;;;;;;1.00;0.50;;;22.20;90.40;;;;;;5070048;28;20492;-81
2022/06/17 05:04:00;;;;;;;2.83;0.85;;;22.40;89.60;;;;;;5069071;28;20479;-82
2022/06/17 05:06:25;;;;;;;5.10;0.90;;;22.50;89.00;;;;;;5069176;28;20127;-81
2022/06/17 05:09:31;;;;;;;3.38;0.70;;;22.50;90.10;;;;;;5069956;28;20127;-82
2022/06/17 05:12:04;;;;;;;2.78;1.08;;;22.60;90.20;;;;;;5073845;28;20051;-82
2022/06/17 05:14:33;;;;;;;5.70;0.95;;;22.60;89.50;;;;;;5060474;28;20404;-82
2022/06/17 05:16:58;;;;;;;2.35;0.60;;;22.70;89.10;;;;;;5069445;28;20032;-82
2022/06/17 05:19:24;;;;;;;2.25;0.50;;;22.70;88.50;;;;;;5068256;28;20020;-83
2022/06/17 05:21:50;;;;;;;3.05;0.50;;;22.70;88.40;;;;;;5071325;28;20119;-82
2022/06/17 05:24:16;;;;;;;5.72;0.75;;;22.80;88.00;;;;;;5068910;28;20113;-81
2022/06/17 05:26:41;;;;;;;3.78;0.73;;;23.00;88.90;;;;;;5086875;28;20030;-82
2022/06/17 05:29:09;;;;;;;3.63;1.10;;;23.20;89.00;;;;;;5068398;28;20558;-81
2022/06/17 05:31:35;;;;;;;2.85;0.85;;;23.40;87.80;;;;;;5081037;28;20044;-81
2022/06/17 05:34:02;;;;;;;2.17;0.80;;;23.70;87.00;;;;;;5068554;28;20035;-82
2022/06/17 05:36:28;;;;;;;2.63;0.80;;;23.60;86.50;;;;;;5080246;28;20065;-81
2022/06/17 05:38:53;;;;;;;7.57;1.13;;;23.50;86.50;;;;;;5107665;28;20028;-81
2022/06/17 05:41:22;;;;;;;3.15;1.00;;;23.50;86.50;;;;;;5075496;28;20414;-81
2022/06/17 05:43:49;;;;;;;2.75;0.68;;;23.70;86.50;;;;;;5065868;28;20085;-81
2022/06/17 05:46:15;;;;;;;5.15;1.17;;;24.10;84.70;;;;;;5101895;28;20511;-81
2022/06/17 05:48:41;;;;;;;4.43;0.90;;;24.50;83.60;;;;;;5105758;28;20554;-81
2022/06/17 05:51:07;;;;;;;2.33;0.65;;;24.90;81.30;;;;;;5088877;28;20035;-82
2022/06/17 05:53:32;;;;;;;3.30;0.90;;;25.30;79.80;;;;;;5080857;28;20507;-82
2022/06/17 05:55:58;;;;;;;5.40;0.93;;;26.00;78.00;;;;;;5073951;28;20043;-82
2022/06/17 05:58:25;;;;;;;6.22;1.15;;;27.20;74.10;;;;;;5072113;28;20147;-81
2022/06/17 06:00:51;;;;;;;2.10;1.00;;;28.30;69.70;;;;;;5086804;28;20028;-82
2022/06/17 06:03:19;;;;;;;1.63;0.70;;;29.20;65.60;;;;;;5086053;28;20028;-82
2022/06/17 06:05:45;;;;;;;5.35;0.80;;;30.20;61.80;;;;;;5068568;28;20112;-82
2022/06/17 06:08:11;;;;;;;4.03;0.95;;;31.30;57.90;;;;;;5068400;28;20023;-83
2022/06/17 06:10:36;;;;;;;5.90;0.93;;;32.40;53.10;;;;;;5068512;28;20504;-82
2022/06/17 06:13:04;;;;;;;2.78;0.77;;;32.70;48.40;;;;;;5086123;28;20024;-82
2022/06/17 06:15:29;;;;;;;7.47;0.75;;;33.30;46.10;;;;;;5084986;28;20032;-82
2022/06/17 06:17:55;;;;;;;3.53;1.00;;;33.90;44.80;;;;;;5106500;28;20026;-83
2022/06/17 06:20:21;;;;;;;2.97;0.80;;;34.20;43.50;;;;;;5106443;28;20027;-83
2022/06/17 06:22:47;;;;;;;2.13;0.73;;;34.70;42.20;;;;;;5106770;28;20020;-83
2022/06/17 06:25:15;;;;;;;2.47;0.60;;;35.20;40.70;;;;;;5088165;28;20028;-82
2022/06/17 06:27:41;;;;;;;3.55;0.93;;;35.60;39.60;;;;;;5105392;28;20292;-82
2022/06/17 06:30:14;;;;;;;5.43;0.90;;;35.90;38.00;;;;;;5106214;28;20511;-82
2022/06/17 06:32:45;;;;;;;2.85;1.02;;;36.10;38.50;;;;;;5105726;28;20566;-82
2022/06/17 06:35:15;;;;;;;4.47;0.80;;;35.60;37.40;;;;;;5106054;28;20052;-82
2022/06/17 06:37:41;;;;;;;3.95;0.80;;;35.80;37.00;;;;;;5087691;28;20030;-82
2022/06/17 06:40:08;;;;;;;2.38;0.70;;;35.80;36.20;;;;;;5108179;28;20441;-82
2022/06/17 06:42:33;;;;;;;3.42;1.50;;;36.10;36.30;;;;;;5110066;28;20023;-82
2022/06/17 06:44:59;;;;;;;10.25;1.00;;;36.50;34.80;;;;;;5091829;28;20069;-82
2022/06/17 06:47:25;;;;;;;5.82;1.05;;;36.90;34.40;;;;;;5110356;28;20085;-78
2022/06/17 06:49:50;;;;;;;2.83;0.73;;;37.10;33.30;;;;;;5091262;28;20602;-81
2022/06/17 06:52:16;;;;;;;4.88;0.88;;;37.20;33.20;;;;;;5110288;28;20066;-79
2022/06/17 06:54:42;;;;;;;2.15;0.80;;;37.20;32.70;;;;;;5091473;28;20197;-79
2022/06/17 06:57:10;;;;;;;2.40;0.93;;;37.30;31.50;;;;;;5110201;28;20019;-80
2022/06/17 06:59:36;;;;;;;2.13;0.90;;;36.90;31.70;;;;;;5108929;28;20069;-82
2022/06/17 07:02:02;;;;;;;1.77;0.65;;;36.80;31.80;;;;;;5105584;28;20024;-81
2022/06/17 07:04:28;;;;;;;2.65;0.70;;;36.80;31.50;;;;;;5070767;28;20530;-82
2022/06/17 07:06:53;;;;;;;1.90;0.90;;;37.10;30.80;;;;;;5071405;28;20037;-82
2022/06/17 07:09:21;;;;;;;5.35;0.90;;;37.10;30.70;;;;;;5089373;28;20036;-80
2022/06/17 07:11:46;;;;;;;2.95;0.80;;;37.30;30.00;;;;;;5089413;28;20036;-80
2022/06/17 07:14:12;;;;;;;3.70;0.70;;;36.90;29.80;;;;;;5071139;28;20507;-79
2022/06/17 07:16:38;;;;;;;1.42;0.70;;;36.90;29.90;;;;;;5070895;28;20026;-79
2022/06/17 07:19:07;;;;;;;3.22;0.75;;;36.80;29.80;;;;;;5070951;28;20036;-79
2022/06/17 07:21:33;;;;;;;1.10;0.70;;;36.80;29.30;;;;;;5071214;28;20036;-79
2022/06/17 07:23:59;;;;;;;1.88;0.75;;;36.70;29.20;;;;;;5088671;28;20119;-79
2022/06/17 07:26:26;;;;;;;3.45;0.95;;;36.50;29.90;;;;;;5070906;28;20441;-79
2022/06/17 07:28:53;;;;;;;3.53;1.15;;;36.50;29.60;;;;;;5093976;28;20115;-79
2022/06/17 07:31:21;;;;;;;2.92;0.80;;;36.50;30.00;;;;;;5107986;28;20039;-80
2022/06/17 07:33:47;;;;;;;4.05;0.88;;;36.90;30.00;;;;;;5089463;28;20061;-80
2022/06/17 07:41:44;;;;;;;2.42;0.75;;;36.70;29.20;;;;;;5109392;28;20070;-80
2022/06/17 07:44:09;;;;;;;4.07;0.98;;;36.80;28.90;;;;;;5091219;28;20039;-81
2022/06/17 07:46:35;;;;;;;4.68;0.95;;;36.70;29.80;;;;;;5092334;28;20019;-80
2022/06/17 07:49:02;;;;;;;3.90;0.60;;;36.80;29.90;;;;;;5096321;28;20065;-81
2022/06/17 07:51:27;;;;;;;3.30;1.17;;;36.80;29.80;;;;;;5116301;28;20043;-81
2022/06/17 07:53:53;;;;;;;4.32;1.10;;;36.60;29.90;;;;;;5110580;28;20402;-81
2022/06/17 07:56:20;;;;;;;1.75;0.88;;;36.80;30.00;;;;;;5109993;28;20036;-81
2022/06/17 07:58:46;;;;;;;7.93;0.90;;;36.60;29.80;;;;;;5109349;28;20020;-81
2022/06/17 08:01:13;;;;;;;2.63;1.10;;;36.20;29.80;;;;;;5109324;28;20102;-81
2022/06/17 08:03:40;;;;;;;4.05;0.88;;;36.10;29.80;;;;;;5106428;28;20307;-79
2022/06/17 08:06:05;;;;;;;2.80;1.40;;;36.10;30.30;;;;;;5090595;28;20027;-80
2022/06/17 08:08:32;;;;;;;4.55;0.77;;;36.10;30.00;;;;;;5108274;28;20024;-81
2022/06/17 08:10:59;;;;;;;3.25;0.80;;;35.50;30.10;;;;;;5090208;28;20165;-78
2022/06/17 08:13:26;;;;;;;3.60;0.90;;;35.20;30.50;;;;;;5106710;28;20035;-80
2022/06/17 08:15:56;;;;;;;4.40;1.02;;;34.80;31.30;;;;;;5107177;28;20027;-81
2022/06/17 08:18:22;;;;;;;3.53;1.00;;;34.70;30.70;;;;;;5106619;28;20399;-80
2022/06/17 08:20:48;;;;;;;3.85;1.00;;;34.20;32.10;;;;;;5107539;28;20019;-80
2022/06/17 08:23:14;;;;;;;5.00;0.77;;;34.60;32.80;;;;;;5108897;28;20040;-82
2022/06/17 08:25:40;;;;;;;6.72;0.70;;;35.00;31.90;;;;;;5102550;28;20020;-80
2022/06/17 08:28:09;;;;;;;1.65;0.80;;;35.40;32.20;;;;;;5060421;28;20032;-80
2022/06/17 08:30:44;;;;;;;2.92;0.68;;;35.50;31.90;;;;;;5048774;28;20097;-80
2022/06/17 08:33:10;;;;;;;3.20;0.90;;;35.60;31.20;;;;;;5079804;28;20030;-80
2022/06/17 08:35:39;;;;;;;9.52;1.20;;;34.90;31.20;;;;;;5087855;28;20028;-78
2022/06/17 08:38:14;;;;;;;4.90;0.75;;;34.00;32.00;;;;;;5069012;28;20396;-78
2022/06/17 08:40:54;;;;;;;5.07;1.00;;;33.00;33.30;;;;;;5087300;28;20165;-78
2022/06/17 08:43:34;;;;;;;2.45;0.88;;;32.10;34.60;;;;;;5087114;28;20034;-77
2022/06/17 08:46:21;;;;;;;4.10;1.00;;;31.30;35.80;;;;;;5087633;28;20115;-78
2022/06/17 08:49:23;;;;;;;6.55;0.90;;;30.50;37.00;;;;;;5069119;28;20016;-80
2022/06/17 08:52:01;;;;;;;4.93;1.10;;;29.90;38.60;;;;;;5087065;28;20063;-81
2022/06/17 08:54:38;;;;;;;2.08;0.90;;;29.60;41.30;;;;;;5097158;28;20038;-80
2022/06/17 08:57:19;;;;;;;3.10;1.15;;;30.10;40.70;;;;;;5107744;28;20214;-80
2022/06/17 09:00:18;;;;;;;2.47;0.88;;;30.60;40.60;;;;;;5088856;28;20531;-80
2022/06/17 09:03:18;;;;;;;3.50;1.13;;;30.50;39.30;;;;;;5105788;28;20366;-80
2022/06/17 09:05:57;;;;;;;2.67;1.08;;;30.20;39.80;;;;;;5079286;28;20028;-80
2022/06/17 09:08:47;;;;;;;2.25;1.13;;;30.10;40.40;;;;;;5085605;28;20644;-80
2022/06/17 09:11:21;;;;;;;2.15;0.80;;;30.60;40.10;;;;;;5068407;28;20638;-80
2022/06/17 09:13:59;;;;;;;3.40;0.77;;;31.20;39.10;;;;;;5069020;28;20077;-81
2022/06/17 09:16:33;;;;;;;2.22;0.88;;;31.90;37.70;;;;;;5080016;28;20020;-78
2022/06/17 09:19:02;;;;;;;3.25;1.20;;;32.10;36.20;;;;;;5096928;28;20024;-80
2022/06/17 09:21:49;;;;;;;2.83;1.13;;;32.40;36.90;;;;;;5078634;28;20030;-81
2022/06/17 09:24:20;;;;;;;2.28;0.70;;;33.00;36.40;;;;;;5095675;28;20032;-81
2022/06/17 09:26:53;;;;;;;3.03;0.90;;;33.50;34.40;;;;;;5070887;28;20443;-80
2022/06/17 09:29:28;;;;;;;3.28;0.88;;;33.70;33.20;;;;;;5085378;28;20600;-80
2022/06/17 09:32:26;;;;;;;3.45;0.70;;;33.20;33.20;;;;;;5103474;28;20044;-81
2022/06/17 09:35:08;;;;;;;2.35;0.82;;;32.30;32.70;;;;;;5102980;28;20055;-79
2022/06/17 09:37:49;;;;;;;2.45;0.80;;;31.30;33.10;;;;;;5105901;28;20094;-78
2022/06/17 09:40:20;;;;;;;1.85;0.65;;;31.20;34.30;;;;;;5088067;28;20059;-78
2022/06/17 09:43:06;;;;;;;3.80;0.98;;;31.40;34.40;;;;;;5074772;28;20032;-80
2022/06/17 09:45:47;;;;;;;2.33;0.75;;;32.20;34.50;;;;;;5106317;28;20032;-79
2022/06/17 09:48:27;;;;;;;5.88;0.60;;;33.10;33.50;;;;;;5087886;28;20039;-79
2022/06/17 09:51:03;;;;;;;1.58;0.90;;;33.80;31.10;;;;;;5106538;28;20037;-80
2022/06/17 09:53:48;;;;;;;1.85;0.75;;;34.20;31.20;;;;;;5105133;28;20035;-78
2022/06/17 09:56:28;;;;;;;2.47;1.10;;;34.60;30.50;;;;;;5087856;28;20536;-78
2022/06/17 09:59:00;;;;;;;2.53;0.90;;;35.10;30.50;;;;;;5088796;28;20093;-76
2022/06/17 10:01:26;;;;;;;3.97;0.90;;;35.30;30.40;;;;;;5106062;28;20035;-72
2022/06/17 10:03:52;;;;;;;2.58;0.77;;;35.30;30.00;;;;;;5106781;28;20085;-76
2022/06/17 10:06:34;;;;;;;3.10;0.93;;;34.80;30.30;;;;;;5106976;28;20028;-78
2022/06/17 10:09:33;;;;;;;5.47;0.90;;;34.20;29.80;;;;;;5088633;28;20028;-77
2022/06/17 10:12:04;;;;;;;4.55;0.82;;;33.50;29.50;;;;;;5106085;28;20067;-78
2022/06/17 10:14:44;;;;;;;2.58;0.88;;;33.40;31.60;;;;;;5088811;28;20030;-78
2022/06/17 10:20:48;;;;;;;1.73;0.70;;;32.20;30.20;;;;;;5110572;28;20464;-77
2022/06/17 10:23:30;;;;;;;2.50;0.90;;;31.30;32.10;;;;;;5110350;28;20027;-79
2022/06/17 10:26:05;;;;;;;2.45;0.98;;;30.60;32.90;;;;;;5110257;28;20499;-78
2022/06/17 10:28:53;;;;;;;3.17;1.10;;;30.20;34.00;;;;;;5109944;28;20027;-79
2022/06/17 10:31:31;;;;;;;3.00;0.80;;;29.90;35.00;;;;;;5109743;28;20375;-78
2022/06/17 10:33:59;;;;;;;1.73;0.65;;;29.70;35.60;;;;;;5109051;28;20030;-79
2022/06/17 10:36:25;;;;;;;1.98;0.80;;;30.10;35.00;;;;;;5109508;28;20035;-79
2022/06/17 10:38:51;;;;;;;4.85;0.90;;;30.00;34.50;;;;;;5110326;28;20031;-79
2022/06/17 10:41:17;;;;;;;7.63;0.80;;;29.90;36.70;;;;;;5109981;28;20106;-78
2022/06/17 10:43:50;;;;;;;5.80;1.23;;;29.90;34.90;;;;;;5110482;28;20019;-78
2022/06/17 10:46:24;;;;;;;3.40;1.17;;;29.90;35.90;;;;;;5109836;28;20032;-79
2022/06/17 10:48:56;;;;;;;3.22;1.42;;;29.90;36.60;;;;;;5110451;28;20032;-79
2022/06/17 10:51:22;;;;;;;3.28;0.95;;;30.00;35.50;;;;;;5090483;28;20086;-77
2022/06/17 10:54:03;;;;;;;3.17;0.98;;;29.90;36.00;;;;;;5085297;28;20103;-80
2022/06/17 10:56:36;;;;;;;2.63;0.77;;;30.30;36.60;;;;;;5089493;28;20032;-80
2022/06/17 10:59:09;;;;;;;2.67;0.90;;;30.60;36.00;;;;;;5089000;28;20067;-80
2022/06/17 11:01:53;;;;;;;1.58;0.60;;;30.90;35.40;;;;;;5082395;28;20024;-80
2022/06/17 11:04:25;;;;;;;2.20;0.88;;;30.90;34.50;;;;;;5081854;28;20064;-80
2022/06/17 11:06:57;;;;;;;2.35;0.80;;;30.70;34.80;;;;;;5050317;28;20031;-79
2022/06/17 11:09:39;;;;;;;2.22;0.93;;;30.50;34.40;;;;;;5068931;28;20036;-80
2022/06/17 11:12:17;;;;;;;1.52;0.63;;;30.20;34.40;;;;;;5056305;28;20508;-78
2022/06/17 11:14:45;;;;;;;2.45;0.85;;;29.70;36.20;;;;;;5076745;28;20107;-78
2022/06/17 11:17:14;;;;;;;2.42;0.82;;;29.30;36.50;;;;;;5070343;28;20382;-78
2022/06/17 11:19:41;;;;;;;3.17;1.13;;;28.90;36.70;;;;;;5070972;28;20110;-79
2022/06/17 11:22:36;;;;;;;5.95;0.98;;;28.60;37.70;;;;;;5070878;28;20032;-77
2022/06/17 11:25:28;;;;;;;2.13;1.00;;;28.40;38.80;;;;;;5069636;28;20035;-77
2022/06/17 11:27:57;;;;;;;4.65;0.95;;;28.20;43.50;;;;;;5070659;28;20130;-77
2022/06/17 11:30:27;;;;;;;4.18;1.17;;;28.10;44.70;;;;;;5060973;28;20614;-78
2022/06/17 11:32:55;;;;;;;4.10;1.17;;;28.00;44.60;;;;;;5050802;28;20048;-78
2022/06/17 11:35:34;;;;;;;9.48;1.20;;;27.80;45.90;;;;;;5090089;28;20020;-78
2022/06/17 11:38:10;;;;;;;2.70;0.95;;;27.40;47.30;;;;;;5109198;28;20571;-78
2022/06/17 11:40:52;;;;;;;1.50;0.90;;;27.00;47.90;;;;;;5100635;28;20110;-77
2022/06/17 11:43:45;;;;;;;4.70;1.05;;;26.70;48.00;;;;;;5068396;28;20039;-78
2022/06/17 11:46:18;;;;;;;2.63;1.10;;;26.60;49.80;;;;;;5064520;28;20033;-77
2022/06/17 11:48:57;;;;;;;4.10;1.77;;;26.40;50.70;;;;;;5050245;28;20090;-78
2022/06/17 11:51:37;;;;;;;4.30;1.17;;;26.20;52.40;;;;;;5068173;28;20032;-78
2022/06/17 11:54:17;;;;;;;2.35;0.93;;;26.00;53.50;;;;;;5050644;28;20028;-78
2022/06/17 11:56:46;;;;;;;4.35;1.52;;;25.80;52.30;;;;;;5050287;28;20032;-76
2022/06/17 11:59:26;;;;;;;3.25;1.00;;;25.70;53.40;;;;;;5067781;28;20028;-78
2022/06/17 12:02:03;;;;;;;2.05;1.30;;;25.70;54.20;;;;;;5067626;28;20056;-78
2022/06/17 12:04:44;;;;;;;4.82;1.10;;;25.80;53.90;;;;;;5067884;28;20024;-77
2022/06/17 12:07:39;;;;;;;3.35;1.02;;;26.00;53.90;;;;;;5050092;28;20595;-78
2022/06/17 12:10:46;;;;;;;6.32;1.35;;;26.30;52.60;;;;;;5050510;28;20036;-79
2022/06/17 12:13:23;;;;;;;3.15;0.95;;;26.50;51.90;;;;;;5069927;28;20116;-78
2022/06/17 12:16:01;;;;;;;5.50;1.83;;;26.60;50.30;;;;;;5067330;28;20090;-78
2022/06/17 12:18:40;;;;;;;1.75;0.80;;;26.70;50.10;;;;;;5067759;28;20484;-77
2022/06/17 12:21:21;;;;;;;5.40;1.02;;;26.90;48.50;;;;;;5049379;28;20221;-77
2022/06/17 12:24:01;;;;;;;5.13;0.90;;;26.90;49.10;;;;;;5046292;28;20091;-77
2022/06/17 12:26:57;;;;;;;3.75;0.90;;;27.00;47.90;;;;;;5066859;28;20032;-79
2022/06/17 12:29:28;;;;;;;2.33;0.95;;;27.30;48.00;;;;;;5047335;28;20037;-79
2022/06/17 12:32:15;;;;;;;3.90;1.23;;;27.50;45.30;;;;;;5049471;28;20040;-78
2022/06/17 12:35:15;;;;;;;3.78;1.17;;;27.90;46.20;;;;;;5067248;28;20516;-78
2022/06/17 12:38:10;;;;;;;2.67;1.08;;;28.10;45.80;;;;;;5067182;28;20283;-79
2022/06/17 12:40:41;;;;;;;3.58;1.20;;;28.10;45.30;;;;;;5048811;28;20081;-78
2022/06/17 12:43:33;;;;;;;4.85;1.10;;;27.90;44.70;;;;;;5049646;28;20036;-78
2022/06/17 12:46:02;;;;;;;8.02;1.00;;;28.00;45.90;;;;;;5048749;28;20024;-78
2022/06/17 12:48:54;;;;;;;4.18;1.20;;;28.20;46.00;;;;;;5049249;28;20518;-77
2022/06/17 12:54:38;;;;;;;4.22;0.88;;;28.90;43.70;;;;;;5067007;28;20040;-78
2022/06/17 12:57:13;;;;;;;3.05;1.27;;;29.20;43.70;;;;;;5048876;28;20027;-78
2022/06/17 12:59:47;;;;;;;3.38;1.17;;;29.60;43.30;;;;;;5066529;28;20082;-78
2022/06/17 13:02:21;;;;;;;3.80;1.48;;;29.70;43.10;;;;;;5066847;28;20036;-79
2022/06/17 13:05:17;;;;;;;4.28;1.27;;;29.90;43.20;;;;;;5067018;28;20072;-79
2022/06/17 13:08:03;;;;;;;3.28;1.20;;;30.10;42.90;;;;;;5052742;28;20459;-78
2022/06/17 13:10:40;;;;;;;2.40;0.85;;;30.20;42.20;;;;;;5086788;28;20031;-78
2022/06/17 13:13:24;;;;;;;4.15;1.17;;;30.50;41.70;;;;;;5068690;28;20040;-79
2022/06/17 13:16:04;;;;;;;4.50;1.45;;;30.70;40.50;;;;;;5084699;28;20090;-78
2022/06/17 13:18:57;;;;;;;5.03;1.23;;;30.70;40.00;;;;;;5086777;28;20055;-79
2022/06/17 13:21:31;;;;;;;6.15;1.30;;;30.80;39.90;;;;;;5086746;28;20512;-79
2022/06/17 13:24:38;;;;;;;3.80;1.30;;;30.70;39.20;;;;;;5068644;28;20115;-79
2022/06/17 13:27:16;;;;;;;4.63;1.05;;;30.40;39.90;;;;;;5035916;28;20037;-78
2022/06/17 13:29:59;;;;;;;5.60;1.33;;;30.10;40.70;;;;;;5079216;28;20055;-79
2022/06/17 13:32:33;;;;;;;4.18;1.20;;;29.80;41.90;;;;;;5085885;28;20036;-79
2022/06/17 13:35:16;;;;;;;2.30;1.30;;;29.60;42.60;;;;;;5086881;28;20114;-78